Available data for KAFO from the past hour
Metar
KAFO 161735Z AUTO 13003KT 10SM CLR M10/M12 A3035 RMK AO2

17:35 UTC

Wind: 130° 3kt

Visibility: 10 SM

Sky:

Temp: -10 deg C / 14 deg F

Dewpoint: -12 deg C / 10.4 deg F

Pressure: 30.35 inHg

The next Board Meeting is: June , 2018           The next Annual Meeting is: Jul 2018

IMG_1868

Please help us keep our taxiways free of debris. The taxiways are only for aircraft.